Terminal Aerodrome Forecast
Issued by NWS

Home | Current Version | Previous Version | Text Only | Print | Product List | Glossary On
Versions: 1 2 3 4 5 6 7 8 9 10 11 12 13 14 15 16 17 18 19 20 21
000
FTUS43 KMKX 311032 AAB
TAFENW
TAF AMD
KENW 311032Z 3111/0106 09003KT P6SM VCSH BKN080
     FM311500 14007KT P6SM VCSH SCT040
     FM312300 13009KT 5SM -SHRA VCTS BKN040CB BKN150
     FM010300 14005KT P6SM VCTS BKN080CB OVC200=

USA.gov is the U.S. government's official web portal to all federal, state and local government web resources and services.